Lake Havasu City, AZ (86403)

9:07 AM MST on March 06, 2015 (GMT -0700)
K9WZB WX Rainbow Avenue Over looking Lake Havasu | Change Station
CLOSE
Current Station
Personal Weather Station
Location: Lake Havasu City, AZ
Elevation: 656 ft
Nearby Weather Stations

Elev 656 ft 34.49 °N, 114.34 °W | Updated 53 seconds ago

Clear
Clear
55.4 °F
Feels Like 55.4 °F
N
0.0
Wind Variable Wind from SE
Gusts 21.0 mph

Today
High -- | Low -- °F
--% Chance of Precip.
Yesterday
High -- | Low -- °F
Precip. -- in
7:00 AM 6:37 PM
Full, 99% visible
Pressure 30.21 in
Visibility 10.0 miles
Clouds Clear
Dew Point 36 °F
Humidity 49%
Rainfall in
Snow Depth Not available.
UV 2 out of 12
Pollen 8.10 out of 12
Air Quality Not available.
Flu Activity Not available.
METAR KEED 061556Z AUTO 35012KT 10SM CLR 16/M03 A3025 RMK AO2 SLP228 T01561033

More Conditions Fewer Conditions

Pressure 30.21 in
Visibility 10.0 miles
Clouds Clear
Dew Point 36 °F
Humidity 49%
Rainfall in
Snow Depth Not available.
UV 2 out of 12
Pollen 8.10 out of 12
Air Quality Not available.
Flu Activity Not available.
METAR KEED 061556Z AUTO 35012KT 10SM CLR 16/M03 A3025 RMK AO2 SLP228 T01561033

More Conditions Fewer Conditions

10-Day Weather Forecast

Almanac

Astronomy

Mar. 06, 2015 Rise Set
Actual Time
Civil Twilight
Nautical Twilight
Astronomical Twilight
Moon
Length of Visible Light
Length of Day
Tomorrow will be .
, % of the Moon is Illuminated

Today's Extremes

State Highs State Lows

Community

WunderPhotos

Upload Photos

1,803,327 photos uploaded!

WunderBlogs® & News

Nearby

Air Quality

  Air Quality AQ Index Pollutant
Not available.

Snow Depth

Station Depth Elevation

Earthquake Activity

City Distance Mag. Time & Date
Minimum magnitude displayed is 2.5.

Coastal Water Temperatures

Place Temperature

Nearby Weather Stations